createdAt,value
2019-06-07T00:02:22.152Z,4.33
2019-06-07T00:04:51.971Z,4.60
2019-06-07T00:07:22.502Z,3.87
2019-06-07T00:09:53.390Z,3.67
2019-06-07T00:12:23.280Z,3.62
2019-06-07T00:14:53.345Z,3.33
2019-06-07T00:17:23.361Z,3.60
2019-06-07T00:19:53.419Z,3.33
2019-06-07T00:22:32.513Z,3.25
2019-06-07T00:24:55.752Z,3.58
2019-06-07T00:27:25.570Z,3.72
2019-06-07T00:29:55.361Z,4.17
2019-06-07T00:32:25.538Z,3.60
2019-06-07T00:34:55.402Z,3.80
2019-06-07T00:37:25.551Z,3.90
2019-06-07T00:40:13.369Z,3.70
2019-06-07T00:42:28.008Z,3.35
2019-06-07T00:44:57.968Z,3.77
2019-06-07T00:47:27.870Z,3.90
2019-06-07T00:49:57.790Z,3.45
2019-06-07T00:53:14.131Z,3.90
2019-06-07T00:55:00.267Z,3.20
2019-06-07T00:57:30.143Z,3.72
2019-06-07T00:59:59.862Z,3.87
2019-06-07T01:02:31.724Z,4.28
2019-06-07T01:05:03.071Z,3.60
2019-06-07T01:07:33.321Z,3.72
2019-06-07T01:10:05.017Z,3.77
2019-06-07T01:12:34.909Z,3.58
2019-06-07T01:15:06.298Z,3.50
2019-06-07T01:17:50.117Z,3.92
2019-06-07T01:20:12.084Z,3.60
2019-06-07T01:22:42.666Z,3.80
2019-06-07T01:25:12.453Z,3.70
2019-06-07T01:27:42.339Z,4.08
2019-06-07T01:30:12.728Z,3.47
2019-06-07T01:32:42.527Z,3.87
2019-06-07T01:35:13.845Z,3.52
2019-06-07T01:37:43.629Z,4.05
2019-06-07T01:40:14.664Z,3.35
2019-06-07T01:42:44.474Z,3.52
2019-06-07T01:45:14.634Z,3.80
2019-06-07T01:47:44.692Z,3.75
2019-06-07T01:50:14.696Z,3.92
2019-06-07T01:52:44.490Z,4.05
2019-06-07T01:55:15.176Z,3.80
2019-06-07T01:57:48.562Z,4.15
2019-06-07T02:00:17.504Z,3.62
2019-06-07T02:02:47.625Z,3.92
2019-06-07T02:05:19.157Z,3.72
2019-06-07T02:07:48.866Z,3.85
2019-06-07T02:10:20.400Z,4.15
2019-06-07T02:12:51.909Z,3.85
2019-06-07T02:15:26.034Z,3.75
2019-06-07T02:17:54.947Z,4.00
2019-06-07T02:20:28.306Z,4.00
2019-06-07T02:22:56.745Z,3.65
2019-06-07T02:25:49.568Z,3.37
2019-06-07T02:28:25.777Z,3.80
2019-06-07T02:30:47.376Z,3.42
2019-06-07T02:33:02.262Z,4.40
2019-06-07T02:35:39.021Z,3.92
2019-06-07T02:38:03.509Z,3.70
2019-06-07T02:40:37.245Z,3.83
2019-06-07T02:43:06.898Z,4.00
2019-06-07T02:45:43.138Z,3.83
2019-06-07T02:48:09.068Z,3.70
2019-06-07T02:50:39.076Z,4.00
2019-06-07T02:53:08.895Z,4.25
2019-06-07T02:56:32.861Z,3.65
2019-06-07T02:58:11.509Z,3.65
2019-06-07T03:01:06.979Z,3.65
2019-06-07T03:03:22.302Z,4.20
2019-06-07T03:05:52.437Z,4.12
2019-06-07T03:08:22.223Z,4.37
2019-06-07T03:10:52.043Z,4.15
2019-06-07T03:13:22.339Z,3.98
2019-06-07T03:15:54.462Z,4.33
2019-06-07T03:18:43.510Z,3.90
2019-06-07T03:21:17.691Z,4.10
2019-06-07T03:23:47.735Z,3.92
2019-06-07T03:26:18.395Z,3.70
2019-06-07T03:28:48.320Z,4.05
2019-06-07T03:31:19.131Z,3.85
2019-06-07T03:33:48.947Z,3.50
2019-06-07T03:36:25.611Z,3.83
2019-06-07T03:38:50.302Z,3.98
2019-06-07T03:41:20.117Z,3.90
2019-06-07T03:43:50.685Z,3.95
2019-06-07T03:46:21.491Z,4.08
2019-06-07T03:48:51.307Z,4.30
2019-06-07T03:51:25.124Z,4.08
2019-06-07T03:53:52.738Z,4.05
2019-06-07T03:56:23.398Z,4.25
2019-06-07T03:58:53.135Z,4.40
2019-06-07T04:01:24.121Z,3.98
2019-06-07T04:03:53.949Z,4.25
2019-06-07T04:06:24.051Z,4.30
2019-06-07T04:08:53.804Z,4.53
2019-06-07T04:11:23.630Z,4.10
2019-06-07T04:13:54.117Z,4.37
2019-06-07T04:16:23.902Z,4.22
2019-06-07T04:18:53.797Z,4.50
2019-06-07T04:21:23.757Z,3.85
2019-06-07T04:23:53.551Z,4.80
2019-06-07T04:26:23.365Z,3.95
2019-06-07T04:29:31.507Z,4.62
2019-06-07T04:31:25.953Z,5.10
2019-06-07T04:33:55.967Z,4.60
2019-06-07T04:36:41.743Z,4.70
2019-06-07T04:39:02.776Z,4.80
2019-06-07T04:41:33.749Z,4.70
2019-06-07T04:44:05.857Z,4.80
2019-06-07T04:46:42.208Z,4.97
2019-06-07T04:49:13.820Z,5.10
2019-06-07T04:51:45.026Z,5.22
2019-06-07T04:54:15.826Z,4.28
2019-06-07T04:56:45.851Z,4.87
2019-06-07T05:00:00.254Z,5.40
2019-06-07T05:01:48.230Z,4.90
2019-06-07T05:04:19.869Z,5.10
2019-06-07T05:06:50.668Z,4.90
2019-06-07T05:09:20.658Z,4.90
2019-06-07T05:11:50.663Z,4.95
2019-06-07T05:14:22.593Z,5.22
2019-06-07T05:16:53.254Z,5.33
2019-06-07T05:19:23.058Z,5.67
2019-06-07T05:22:03.666Z,5.83
2019-06-07T05:24:24.290Z,5.70
2019-06-07T05:26:55.138Z,5.28
2019-06-07T05:29:25.632Z,5.28
2019-06-07T05:31:55.789Z,5.28
2019-06-07T05:34:25.592Z,4.92
2019-06-07T05:37:11.001Z,6.33
2019-06-07T05:39:27.895Z,5.35
2019-06-07T05:41:57.690Z,5.78
2019-06-07T05:44:27.514Z,5.70
2019-06-07T05:46:57.440Z,6.08
2019-06-07T05:49:27.269Z,6.10
2019-06-07T05:51:57.964Z,5.70
2019-06-07T05:54:28.948Z,5.50
2019-06-07T05:57:00.538Z,5.95
2019-06-07T05:59:31.081Z,6.15
2019-06-07T06:02:09.463Z,6.28
2019-06-07T06:04:36.286Z,5.95
2019-06-07T06:07:07.499Z,6.50
2019-06-07T06:09:38.211Z,7.58
2019-06-07T06:12:07.991Z,7.35
2019-06-07T06:14:41.977Z,6.90
2019-06-07T06:17:10.675Z,6.83
2019-06-07T06:19:45.360Z,6.67
2019-06-07T06:22:12.817Z,6.92
2019-06-07T06:25:17.458Z,7.40
2019-06-07T06:27:41.739Z,7.42
2019-06-07T06:29:47.063Z,7.08
2019-06-07T06:34:53.661Z,8.03
2019-06-07T06:37:21.313Z,8.83
2019-06-07T06:39:52.312Z,8.85
2019-06-07T06:42:23.557Z,9.20
2019-06-07T06:44:54.414Z,8.88
2019-06-07T06:47:24.579Z,9.15
2019-06-07T06:49:54.718Z,10.18
2019-06-07T06:52:24.626Z,11.05
2019-06-07T06:55:00.478Z,11.20
2019-06-07T06:57:25.937Z,12.00
2019-06-07T06:59:56.106Z,11.70
2019-06-07T07:02:26.554Z,11.78
2019-06-07T07:04:56.359Z,11.83
2019-06-07T07:07:27.814Z,11.30
2019-06-07T07:10:00.038Z,11.88
2019-06-07T07:12:30.073Z,12.13
2019-06-07T07:15:00.750Z,11.40
2019-06-07T07:17:47.662Z,12.78
2019-06-07T07:20:05.371Z,13.28
2019-06-07T07:22:35.693Z,13.20
2019-06-07T07:25:07.397Z,13.80
2019-06-07T07:27:37.958Z,13.05
2019-06-07T07:30:36.021Z,13.30
2019-06-07T07:32:45.572Z,13.60
2019-06-07T07:35:14.390Z,13.60
2019-06-07T07:37:46.257Z,12.80
2019-06-07T07:42:50.426Z,9.80
2019-06-07T07:45:20.335Z,8.88
2019-06-07T07:48:11.076Z,8.65
2019-06-07T07:50:23.855Z,8.00
2019-06-07T07:53:00.044Z,8.48
2019-06-07T07:55:26.223Z,8.43
2019-06-07T07:58:01.083Z,8.60
2019-06-07T08:00:52.261Z,9.53
2019-06-07T08:03:04.577Z,8.88
2019-06-07T08:05:43.105Z,9.48
2019-06-07T08:08:07.833Z,9.40
2019-06-07T08:10:38.196Z,9.70
2019-06-07T08:13:24.985Z,10.23
2019-06-07T08:15:40.066Z,10.03
2019-06-07T08:18:10.740Z,9.08
2019-06-07T08:21:01.394Z,7.03
2019-06-07T08:23:13.088Z,6.90
2019-06-07T08:25:44.090Z,6.05
2019-06-07T08:28:13.902Z,6.53
2019-06-07T08:30:52.953Z,6.10
2019-06-07T08:33:25.818Z,6.90
2019-06-07T08:36:11.905Z,6.65
2019-06-07T08:38:27.618Z,6.08
2019-06-07T08:40:56.858Z,6.17
2019-06-07T08:43:23.330Z,6.03
2019-06-07T08:46:01.152Z,6.85
2019-06-07T08:48:28.319Z,7.08
2019-06-07T08:51:06.322Z,7.30
2019-06-07T08:53:30.839Z,7.42
2019-06-07T08:56:06.943Z,7.45
2019-06-07T08:58:33.093Z,7.40
2019-06-07T09:01:07.707Z,6.90
2019-06-07T09:03:34.426Z,8.30
2019-06-07T09:06:16.495Z,7.42
2019-06-07T09:08:36.269Z,7.37
2019-06-07T09:11:11.374Z,7.92
2019-06-07T09:13:39.701Z,7.50
2019-06-07T09:16:10.512Z,7.15
2019-06-07T09:18:43.805Z,7.30
2019-06-07T09:21:13.150Z,7.35
2019-06-07T09:23:42.946Z,7.78
2019-06-07T09:26:18.127Z,8.18
2019-06-07T09:28:45.567Z,8.10
2019-06-07T09:31:16.157Z,6.40
2019-06-07T09:33:46.835Z,6.45
2019-06-07T09:36:17.774Z,6.95
2019-06-07T09:38:48.575Z,6.95
2019-06-07T09:41:18.384Z,6.85
2019-06-07T09:44:04.696Z,6.83
2019-06-07T09:46:20.145Z,6.28
2019-06-07T09:51:21.393Z,7.08
2019-06-07T09:53:51.195Z,6.42
2019-06-07T09:56:21.426Z,6.28
2019-06-07T09:58:53.738Z,6.33
2019-06-07T10:01:22.679Z,5.67
2019-06-07T10:03:52.566Z,6.15
2019-06-07T10:06:24.317Z,6.17
2019-06-07T10:11:27.491Z,5.80
2019-06-07T10:13:58.353Z,5.95
2019-06-07T10:16:28.521Z,5.22
2019-06-07T10:18:59.200Z,4.72
2019-06-07T10:21:29.297Z,4.45
2019-06-07T10:23:59.291Z,5.00
2019-06-07T10:26:29.606Z,5.42
2019-06-07T10:28:59.708Z,5.87
2019-06-07T10:31:29.635Z,6.03
2019-06-07T10:34:00.545Z,7.50
2019-06-07T10:36:30.595Z,8.03
2019-06-07T10:39:02.802Z,8.55
2019-06-07T10:41:32.874Z,8.83
2019-06-07T10:44:03.658Z,9.70
2019-06-07T10:46:33.454Z,10.43
2019-06-07T10:49:05.991Z,10.18
2019-06-07T10:51:36.854Z,10.75
2019-06-07T10:54:23.211Z,10.45
2019-06-07T10:56:39.507Z,10.88
2019-06-07T10:59:11.933Z,10.38
2019-06-07T11:01:42.131Z,8.83
2019-06-07T11:04:11.926Z,10.43
2019-06-07T11:06:41.758Z,11.90
2019-06-07T11:09:12.080Z,10.72
2019-06-07T11:11:42.329Z,11.95
2019-06-07T11:14:12.726Z,11.22
2019-06-07T11:16:42.754Z,11.30
2019-06-07T11:19:15.676Z,10.95
2019-06-07T11:21:44.033Z,10.70
2019-06-07T11:24:14.420Z,12.20
2019-06-07T11:26:45.769Z,10.50
2019-06-07T11:29:16.352Z,9.60
2019-06-07T11:31:47.530Z,8.80
2019-06-07T11:34:18.602Z,6.45
2019-06-07T11:36:51.088Z,5.20
2019-06-07T11:39:21.345Z,4.97
2019-06-07T11:41:51.149Z,4.92
2019-06-07T11:44:22.898Z,5.60
2019-06-07T11:47:12.461Z,5.80
2019-06-07T11:49:43.129Z,6.42
2019-06-07T11:52:13.996Z,5.90
2019-06-07T11:54:43.798Z,6.72
2019-06-07T11:57:15.050Z,6.90
2019-06-07T11:59:45.036Z,7.30
2019-06-07T12:02:15.521Z,7.03
2019-06-07T12:04:46.331Z,8.23
2019-06-07T12:07:17.654Z,9.40
2019-06-07T12:09:56.362Z,8.03
2019-06-07T12:12:20.630Z,8.63
2019-06-07T12:14:51.054Z,10.80
2019-06-07T12:17:20.904Z,8.93
2019-06-07T12:19:50.784Z,9.45
2019-06-07T12:22:21.106Z,8.38
2019-06-07T12:24:50.981Z,9.10
2019-06-07T12:27:21.055Z,10.38
2019-06-07T12:29:50.863Z,10.30
2019-06-07T12:32:21.595Z,10.32
2019-06-07T12:34:51.616Z,10.45
2019-06-07T12:37:28.365Z,10.68
2019-06-07T12:39:52.870Z,10.60
2019-06-07T12:42:22.772Z,9.45
2019-06-07T12:44:53.038Z,10.50
2019-06-07T12:47:23.246Z,8.70
2019-06-07T12:49:53.210Z,10.35
2019-06-07T12:52:24.581Z,9.70
2019-06-07T12:54:55.304Z,10.35
2019-06-07T12:57:25.456Z,10.58
2019-06-07T12:59:55.255Z,11.70
2019-06-07T13:02:25.591Z,12.10
2019-06-07T13:04:55.486Z,11.28
2019-06-07T13:07:26.224Z,12.70
2019-06-07T13:09:57.138Z,12.07
2019-06-07T13:12:28.128Z,11.43
2019-06-07T13:14:58.238Z,12.65
2019-06-07T13:17:28.603Z,14.10
2019-06-07T13:19:59.537Z,14.00
2019-06-07T13:22:29.398Z,12.95
2019-06-07T13:24:59.634Z,13.98
2019-06-07T13:27:33.400Z,13.22
2019-06-07T13:30:09.191Z,13.28
2019-06-07T13:32:33.209Z,13.40
2019-06-07T13:35:03.690Z,14.18
2019-06-07T13:37:33.541Z,13.83
2019-06-07T13:40:05.825Z,13.20
2019-06-07T13:42:35.726Z,12.35
2019-06-07T13:45:08.679Z,14.00
2019-06-07T13:47:38.531Z,13.53
2019-06-07T13:50:10.262Z,14.13
2019-06-07T13:52:41.968Z,14.05
2019-06-07T13:55:12.374Z,13.78
2019-06-07T13:57:42.180Z,15.20
2019-06-07T14:00:13.519Z,12.07
2019-06-07T14:02:43.354Z,11.73
2019-06-07T14:05:13.638Z,11.75
2019-06-07T14:07:43.847Z,10.43
2019-06-07T14:10:14.062Z,11.57
2019-06-07T14:12:44.650Z,10.75
2019-06-07T14:15:15.669Z,10.85
2019-06-07T14:17:45.709Z,12.65
2019-06-07T14:20:16.025Z,11.22
2019-06-07T14:22:47.025Z,10.60
2019-06-07T14:25:17.154Z,10.13
2019-06-07T14:27:47.118Z,12.70
2019-06-07T14:30:18.511Z,9.85
2019-06-07T14:32:48.341Z,10.95
2019-06-07T14:35:18.446Z,12.25
2019-06-07T14:37:48.373Z,13.00
2019-06-07T14:40:19.003Z,11.50
2019-06-07T14:42:49.940Z,14.03
2019-06-07T14:45:20.993Z,12.47
2019-06-07T14:47:50.850Z,12.60
2019-06-07T14:50:20.774Z,13.20
2019-06-07T14:52:50.559Z,13.88
2019-06-07T14:55:20.407Z,13.88
2019-06-07T14:57:50.201Z,14.18
2019-06-07T15:00:22.929Z,15.38
2019-06-07T15:02:52.770Z,17.50
2019-06-07T15:05:26.646Z,18.35
2019-06-07T15:07:57.630Z,17.77
2019-06-07T15:10:28.604Z,17.70
2019-06-07T15:12:58.547Z,18.37
2019-06-07T15:15:28.411Z,18.00
2019-06-07T15:17:59.111Z,19.25
2019-06-07T15:20:30.432Z,20.62
2019-06-07T15:23:01.781Z,19.65
2019-06-07T15:25:31.650Z,20.62
2019-06-07T15:28:02.646Z,23.20
2019-06-07T15:30:33.586Z,21.60
2019-06-07T15:33:04.495Z,23.55
2019-06-07T15:35:37.301Z,25.25
2019-06-07T15:38:07.276Z,25.52
2019-06-07T15:40:37.543Z,26.17
2019-06-07T15:43:08.082Z,26.90
2019-06-07T15:45:37.931Z,27.27
2019-06-07T15:48:07.854Z,28.30
2019-06-07T15:50:38.357Z,27.45
2019-06-07T15:53:08.325Z,29.90
2019-06-07T15:55:43.843Z,28.80
2019-06-07T15:58:10.560Z,31.33
2019-06-07T16:00:41.096Z,29.85
2019-06-07T16:03:11.838Z,32.45
2019-06-07T16:05:43.237Z,33.90
2019-06-07T16:08:14.634Z,33.18
2019-06-07T16:10:45.736Z,33.92
2019-06-07T16:13:16.552Z,33.48
2019-06-07T16:15:46.587Z,33.53
2019-06-07T16:18:17.641Z,31.35
2019-06-07T16:20:47.441Z,33.95
2019-06-07T16:23:17.282Z,34.67
2019-06-07T16:25:47.393Z,34.27
2019-06-07T16:28:17.197Z,33.42
2019-06-07T16:30:47.081Z,36.55
2019-06-07T16:33:17.133Z,36.70
2019-06-07T16:35:46.935Z,36.85
2019-06-07T16:38:16.986Z,36.88
2019-06-07T16:40:47.094Z,37.78
2019-06-07T16:43:18.380Z,36.45
2019-06-07T16:45:49.349Z,37.15
2019-06-07T16:48:19.848Z,40.25
2019-06-07T16:50:49.642Z,41.08
2019-06-07T16:53:19.486Z,38.85
2019-06-07T16:55:49.294Z,38.78
2019-06-07T16:58:19.130Z,39.33
2019-06-07T17:00:49.673Z,37.38
2019-06-07T17:03:19.534Z,37.38
2019-06-07T17:05:50.644Z,36.58
2019-06-07T17:08:20.973Z,38.20
2019-06-07T17:10:51.818Z,40.50
2019-06-07T17:13:33.035Z,40.45
2019-06-07T17:15:53.088Z,41.00
2019-06-07T17:18:22.890Z,43.83
2019-06-07T17:20:53.458Z,44.65
2019-06-07T17:23:23.392Z,45.70
2019-06-07T17:25:53.179Z,47.45
2019-06-07T17:28:23.725Z,48.33
2019-06-07T17:30:54.598Z,47.73
2019-06-07T17:33:24.411Z,49.63
2019-06-07T17:35:54.257Z,48.85
2019-06-07T17:38:24.342Z,53.40
2019-06-07T17:40:54.336Z,50.67
2019-06-07T17:43:24.190Z,57.40
2019-06-07T17:45:54.402Z,56.23
2019-06-07T17:48:24.240Z,59.70
2019-06-07T17:50:54.012Z,57.85
2019-06-07T17:53:23.950Z,60.55
2019-06-07T17:55:54.020Z,61.70
2019-06-07T17:58:24.260Z,59.08
2019-06-07T18:00:54.117Z,58.60
2019-06-07T18:03:23.925Z,58.40
2019-06-07T18:05:53.951Z,61.02
2019-06-07T18:08:25.795Z,61.58
2019-06-07T18:10:56.347Z,57.50
2019-06-07T18:13:26.327Z,57.33
2019-06-07T18:15:59.499Z,59.38
2019-06-07T18:18:29.088Z,60.73
2019-06-07T18:20:59.314Z,58.23
2019-06-07T18:23:29.171Z,56.05
2019-06-07T18:25:59.046Z,53.33
2019-06-07T18:28:29.083Z,53.42
2019-06-07T18:30:59.250Z,50.48
2019-06-07T18:33:29.055Z,53.63
2019-06-07T18:35:59.473Z,50.10
2019-06-07T18:38:29.392Z,51.75
2019-06-07T18:40:59.626Z,50.60
2019-06-07T18:43:29.716Z,51.23
2019-06-07T18:45:59.554Z,49.35
2019-06-07T18:48:29.358Z,51.58
2019-06-07T18:50:59.265Z,53.02
2019-06-07T18:53:29.158Z,51.20
2019-06-07T18:55:58.995Z,49.23
2019-06-07T18:58:28.873Z,51.73
2019-06-07T19:00:59.314Z,50.65
2019-06-07T19:03:29.118Z,49.55
2019-06-07T19:05:58.932Z,50.23
2019-06-07T19:08:28.984Z,53.45
2019-06-07T19:10:59.035Z,47.62
2019-06-07T19:13:29.106Z,46.02
2019-06-07T19:15:59.682Z,47.35
2019-06-07T19:18:29.751Z,46.68
2019-06-07T19:21:00.681Z,49.53
2019-06-07T19:23:30.620Z,48.70
2019-06-07T19:26:01.285Z,48.85
2019-06-07T19:28:31.094Z,49.25
2019-06-07T19:31:01.301Z,47.58
2019-06-07T19:33:31.266Z,43.58
2019-06-07T19:36:01.768Z,42.13
2019-06-07T19:38:31.827Z,42.03
2019-06-07T19:41:17.598Z,38.38
2019-06-07T19:43:33.603Z,38.55
2019-06-07T19:46:03.438Z,38.78
2019-06-07T19:48:33.307Z,41.15
2019-06-07T19:51:03.350Z,40.90
2019-06-07T19:53:34.409Z,39.15
2019-06-07T19:56:04.215Z,38.58
2019-06-07T19:58:34.025Z,36.63
2019-06-07T20:01:05.001Z,36.50
2019-06-07T20:03:35.850Z,35.88
2019-06-07T20:06:06.023Z,37.38
2019-06-07T20:08:35.873Z,34.15
2019-06-07T20:11:05.688Z,37.08
2019-06-07T20:13:35.482Z,33.88
2019-06-07T20:16:11.024Z,33.15
2019-06-07T20:18:40.815Z,32.13
2019-06-07T20:21:10.626Z,34.18
2019-06-07T20:23:40.465Z,33.25
2019-06-07T20:26:11.047Z,34.10
2019-06-07T20:28:42.130Z,30.12
2019-06-07T20:31:12.998Z,32.60
2019-06-07T20:33:42.870Z,31.50
2019-06-07T20:36:12.873Z,31.70
2019-06-07T20:38:42.730Z,33.25
2019-06-07T20:41:12.913Z,32.48
2019-06-07T20:43:42.723Z,32.78
2019-06-07T20:46:12.766Z,32.20
2019-06-07T20:48:42.574Z,32.45
2019-06-07T20:51:12.684Z,32.05
2019-06-07T20:53:43.045Z,30.92
2019-06-07T20:56:12.871Z,31.57
2019-06-07T20:58:42.707Z,30.32
2019-06-07T21:01:12.738Z,31.40
2019-06-07T21:03:42.574Z,31.33
2019-06-07T21:06:12.586Z,32.95
2019-06-07T21:08:42.614Z,32.23
2019-06-07T21:11:12.526Z,31.37
2019-06-07T21:13:42.748Z,32.83
2019-06-07T21:16:12.590Z,33.55
2019-06-07T21:18:42.528Z,33.33
2019-06-07T21:21:12.522Z,36.08
2019-06-07T21:23:42.555Z,35.70
2019-06-07T21:26:12.591Z,33.90
2019-06-07T21:28:42.887Z,33.40
2019-06-07T21:31:14.309Z,32.78
2019-06-07T21:33:45.105Z,34.88
2019-06-07T21:36:14.910Z,34.73
2019-06-07T21:38:44.753Z,34.58
2019-06-07T21:41:14.806Z,33.40
2019-06-07T21:43:44.608Z,34.88
2019-06-07T21:46:20.306Z,33.88
2019-06-07T21:48:46.225Z,35.78
2019-06-07T21:51:17.228Z,39.15
2019-06-07T21:53:48.167Z,37.58
2019-06-07T21:56:17.975Z,35.63
2019-06-07T21:58:47.850Z,39.25
2019-06-07T22:01:19.988Z,39.75
2019-06-07T22:03:50.366Z,41.65
2019-06-07T22:06:20.423Z,42.27
2019-06-07T22:08:50.356Z,42.98
2019-06-07T22:11:20.179Z,42.62
2019-06-07T22:13:49.981Z,42.20
2019-06-07T22:16:28.669Z,45.28
2019-06-07T22:18:51.260Z,41.48
2019-06-07T22:21:21.659Z,44.73
2019-06-07T22:23:52.520Z,42.73
2019-06-07T22:26:22.696Z,43.00
2019-06-07T22:28:52.490Z,43.35
2019-06-07T22:31:22.332Z,41.63
2019-06-07T22:33:52.860Z,42.78
2019-06-07T22:36:22.955Z,40.05
2019-06-07T22:38:52.808Z,40.28
2019-06-07T22:41:22.689Z,38.98
2019-06-07T22:43:52.590Z,40.45
2019-06-07T22:46:36.405Z,39.75
2019-06-07T22:48:55.141Z,38.70
2019-06-07T22:51:25.010Z,39.75
2019-06-07T22:53:54.839Z,37.78
2019-06-07T22:56:26.622Z,37.70
2019-06-07T22:58:56.623Z,40.10
2019-06-07T23:01:27.490Z,41.10
2019-06-07T23:03:57.525Z,40.73
2019-06-07T23:06:27.418Z,40.33
2019-06-07T23:08:59.386Z,40.10
2019-06-07T23:11:30.140Z,38.67
2019-06-07T23:13:59.946Z,38.02
2019-06-07T23:16:29.935Z,35.58
2019-06-07T23:18:59.783Z,37.25
2019-06-07T23:21:29.586Z,37.13
2019-06-07T23:23:59.471Z,35.75
2019-06-07T23:26:29.624Z,35.28
2019-06-07T23:28:59.435Z,34.60
2019-06-07T23:31:29.291Z,35.88
2019-06-07T23:33:59.536Z,34.25
2019-06-07T23:36:29.358Z,34.92
2019-06-07T23:39:20.446Z,34.63
2019-06-07T23:41:50.321Z,34.38
2019-06-07T23:44:21.323Z,35.13
2019-06-07T23:46:52.352Z,34.10
2019-06-07T23:49:22.566Z,35.60
2019-06-07T23:51:52.456Z,33.02
2019-06-07T23:54:22.303Z,33.63
2019-06-07T23:56:52.114Z,32.53
2019-06-07T23:59:22.429Z,32.17
